Time,TemperatureF,DewpointF,PressureIn,WindDirection,WindDirectionDegrees,WindSpeedMPH,WindSpeedGustMPH,Humidity,HourlyPrecipIn,Conditions,Clouds,dailyrainin,SolarRadiationWatts/m^2,SoftwareType,DateUTC
2013-08-07 00:10:00,65.0,46.9,29.97,ESE,121,0.0,7.0,52,0.00,,,0.00,0,Wunderground v.1.15,2013-08-07 07:10:00,
2013-08-07 00:19:00,64.4,46.9,29.96,ESE,121,0.0,7.0,53,0.00,,,0.00,0,Wunderground v.1.15,2013-08-07 07:19:00,
2013-08-07 00:30:00,64.0,48.0,29.96,ESE,121,0.0,7.0,56,0.00,,,0.00,0,Wunderground v.1.15,2013-08-07 07:30:00,
2013-08-07 00:39:00,63.7,46.7,29.96,ESE,121,0.0,7.0,54,0.00,,,0.00,0,Wunderground v.1.15,2013-08-07 07:39:00,
2013-08-07 00:50:00,63.4,46.9,29.96,ESE,121,0.0,7.0,55,0.00,,,0.00,0,Wunderground v.1.15,2013-08-07 07:50:00,
2013-08-07 01:00:00,63.1,46.7,29.96,ESE,122,0.0,7.0,55,0.00,,,0.00,0,Wunderground v.1.15,2013-08-07 08:00:00,
2013-08-07 01:10:00,62.9,46.0,29.95,ESE,122,0.0,7.0,54,0.00,,,0.00,0,Wunderground v.1.15,2013-08-07 08:10:00,
2013-08-07 01:20:00,62.7,46.3,29.96,ESE,121,0.0,7.0,55,0.00,,,0.00,0,Wunderground v.1.15,2013-08-07 08:20:00,
2013-08-07 01:29:00,62.7,45.8,29.95,ESE,121,0.0,7.0,54,0.00,,,0.00,0,Wunderground v.1.15,2013-08-07 08:29:00,
2013-08-07 01:40:00,62.7,45.8,29.96,ESE,122,0.0,7.0,54,0.00,,,0.00,0,Wunderground v.1.15,2013-08-07 08:40:00,
2013-08-07 01:49:00,62.3,43.9,29.96,ESE,122,0.0,7.0,51,0.00,,,0.00,0,Wunderground v.1.15,2013-08-07 08:49:00,
2013-08-07 02:00:00,62.1,44.3,29.96,ESE,121,0.0,7.0,52,0.00,,,0.00,0,Wunderground v.1.15,2013-08-07 09:00:00,
2013-08-07 02:09:00,61.9,44.6,29.95,ESE,121,0.0,7.0,53,0.00,,,0.00,0,Wunderground v.1.15,2013-08-07 09:09:00,
2013-08-07 02:20:00,61.6,44.8,29.95,ESE,121,0.0,7.0,54,0.00,,,0.00,0,Wunderground v.1.15,2013-08-07 09:20:00,
2013-08-07 02:29:00,61.4,44.1,29.94,ESE,122,0.0,7.0,53,0.00,,,0.00,0,Wunderground v.1.15,2013-08-07 09:29:00,
2013-08-07 02:40:00,62.5,42.5,29.94,ESE,119,2.0,7.0,48,0.00,,,0.00,0,Wunderground v.1.15,2013-08-07 09:40:00,
2013-08-07 02:49:00,63.0,43.5,29.95,ESE,121,1.0,7.0,49,0.00,,,0.00,0,Wunderground v.1.15,2013-08-07 09:49:00,
2013-08-07 03:00:00,62.4,44.0,29.96,ESE,119,1.0,7.0,51,0.00,,,0.00,0,Wunderground v.1.15,2013-08-07 10:00:00,
2013-08-07 03:10:00,61.9,44.1,29.95,ESE,118,1.0,1.0,52,0.00,,,0.00,0,Wunderground v.1.15,2013-08-07 10:10:00,
2013-08-07 03:19:00,61.5,44.2,29.95,ESE,118,0.0,7.0,53,0.00,,,0.00,0,Wunderground v.1.15,2013-08-07 10:19:00,
2013-08-07 03:30:00,61.1,44.8,29.95,ESE,118,0.0,7.0,55,0.00,,,0.00,0,Wunderground v.1.15,2013-08-07 10:30:00,
2013-08-07 03:39:00,60.5,44.2,29.95,ESE,119,0.0,7.0,55,0.00,,,0.00,0,Wunderground v.1.15,2013-08-07 10:39:00,
2013-08-07 03:50:00,60.2,43.5,29.94,ESE,118,0.0,7.0,54,0.00,,,0.00,0,Wunderground v.1.15,2013-08-07 10:50:00,
2013-08-07 03:59:00,60.1,43.4,29.94,ESE,118,0.0,7.0,54,0.00,,,0.00,0,Wunderground v.1.15,2013-08-07 10:59:00,
2013-08-07 04:10:00,59.9,43.2,29.94,ESE,118,0.0,7.0,54,0.00,,,0.00,0,Wunderground v.1.15,2013-08-07 11:10:00,
2013-08-07 04:20:00,59.8,42.6,29.94,ESE,118,0.0,7.0,53,0.00,,,0.00,0,Wunderground v.1.15,2013-08-07 11:20:00,
2013-08-07 04:30:00,59.7,43.0,29.94,ESE,119,0.0,7.0,54,0.00,,,0.00,0,Wunderground v.1.15,2013-08-07 11:30:00,
2013-08-07 04:40:00,59.7,43.5,29.94,ESE,119,0.0,7.0,55,0.00,,,0.00,0,Wunderground v.1.15,2013-08-07 11:40:00,
2013-08-07 04:49:00,59.6,43.9,29.95,ESE,118,0.0,7.0,56,0.00,,,0.00,0,Wunderground v.1.15,2013-08-07 11:49:00,
2013-08-07 05:00:00,59.2,44.0,29.95,ESE,118,0.0,7.0,57,0.00,,,0.00,0,Wunderground v.1.15,2013-08-07 12:00:00,
2013-08-07 05:09:00,58.9,44.6,29.95,ESE,118,0.0,7.0,59,0.00,,,0.00,0,Wunderground v.1.15,2013-08-07 12:09:00,
2013-08-07 05:20:00,58.2,44.8,29.95,ESE,118,0.0,7.0,61,0.00,,,0.00,0,Wunderground v.1.15,2013-08-07 12:20:00,
2013-08-07 05:29:00,57.8,45.3,29.94,ESE,119,0.0,7.0,63,0.00,,,0.00,0,Wunderground v.1.15,2013-08-07 12:29:00,
2013-08-07 06:09:00,58.4,41.8,29.94,ESE,118,0.0,7.0,54,0.00,,,0.00,0,Wunderground v.1.15,2013-08-07 13:09:00,
2013-08-07 06:19:00,58.8,41.7,29.95,ESE,118,0.0,7.0,53,0.00,,,0.00,0,Wunderground v.1.15,2013-08-07 13:19:00,
2013-08-07 06:29:00,58.7,41.6,29.95,ESE,118,0.0,7.0,53,0.00,,,0.00,7,Wunderground v.1.15,2013-08-07 13:29:00,
2013-08-07 06:39:00,58.7,42.6,29.96,ESE,118,0.0,7.0,55,0.00,,,0.00,11,Wunderground v.1.15,2013-08-07 13:39:00,
2013-08-07 06:50:00,58.6,42.9,29.96,ESE,118,0.0,7.0,56,0.00,,,0.00,12,Wunderground v.1.15,2013-08-07 13:50:00,
2013-08-07 06:59:00,58.3,42.7,29.97,ESE,118,0.0,7.0,56,0.00,,,0.00,14,Wunderground v.1.15,2013-08-07 13:59:00,
2013-08-07 07:10:00,58.0,42.8,29.97,ESE,117,0.0,7.0,57,0.00,,,0.00,16,Wunderground v.1.15,2013-08-07 14:10:00,
2013-08-07 07:19:00,57.7,43.9,29.97,ESE,118,0.0,7.0,60,0.00,,,0.00,18,Wunderground v.1.15,2013-08-07 14:19:00,
2013-08-07 07:30:00,57.6,43.8,29.98,ESE,117,0.0,7.0,60,0.00,,,0.00,19,Wunderground v.1.15,2013-08-07 14:30:00,
2013-08-07 07:39:00,57.7,44.3,29.98,ESE,118,0.0,7.0,61,0.00,,,0.00,21,Wunderground v.1.15,2013-08-07 14:39:00,
2013-08-07 07:50:00,58.7,45.3,29.98,ESE,118,0.0,7.0,61,0.00,,,0.00,21,Wunderground v.1.15,2013-08-07 14:50:00,
2013-08-07 07:59:00,59.7,46.7,29.99,ESE,117,0.0,7.0,62,0.00,,,0.00,23,Wunderground v.1.15,2013-08-07 14:59:00,
2013-08-07 08:10:00,60.2,46.7,29.99,ESE,118,0.0,7.0,61,0.00,,,0.00,25,Wunderground v.1.15,2013-08-07 15:10:00,
2013-08-07 08:19:00,60.9,48.6,29.99,ESE,117,0.0,7.0,64,0.00,,,0.00,46,Wunderground v.1.15,2013-08-07 15:19:00,
2013-08-07 08:30:00,61.5,48.8,29.99,ESE,118,1.0,1.0,63,0.00,,,0.00,28,Wunderground v.1.15,2013-08-07 15:30:00,
2013-08-07 08:39:00,62.0,49.3,29.99,ESE,113,1.0,1.0,63,0.00,,,0.00,93,Wunderground v.1.15,2013-08-07 15:39:00,
2013-08-07 08:50:00,62.5,49.3,30.00,SSE,163,1.0,1.0,62,0.00,,,0.00,417,Wunderground v.1.15,2013-08-07 15:50:00,
2013-08-07 08:59:00,63.4,50.1,30.00,SSE,166,1.0,1.0,62,0.00,,,0.00,519,Wunderground v.1.15,2013-08-07 15:59:00,
2013-08-07 09:09:00,64.4,51.1,30.00,SSE,167,0.0,7.0,62,0.00,,,0.00,499,Wunderground v.1.15,2013-08-07 16:09:00,
2013-08-07 09:19:00,65.0,50.3,30.00,SSE,167,1.0,1.0,59,0.00,,,0.00,39,Wunderground v.1.15,2013-08-07 16:19:00,
2013-08-07 09:29:00,65.8,51.1,30.00,SSE,168,0.0,7.0,59,0.00,,,0.00,32,Wunderground v.1.15,2013-08-07 16:29:00,
2013-08-07 09:40:00,66.9,52.1,30.00,South,169,1.0,7.0,59,0.00,,,0.00,135,Wunderground v.1.15,2013-08-07 16:40:00,
2013-08-07 09:49:00,68.3,52.9,30.00,SSW,209,2.0,7.0,58,0.00,,,0.00,668,Wunderground v.1.15,2013-08-07 16:49:00,
2013-08-07 10:00:00,68.7,53.8,30.00,SW,221,2.0,7.0,59,0.00,,,0.00,696,Wunderground v.1.15,2013-08-07 17:00:00,
2013-08-07 10:09:00,69.3,54.8,30.00,SW,221,1.0,7.0,60,0.00,,,0.00,722,Wunderground v.1.15,2013-08-07 17:09:00,
2013-08-07 10:20:00,69.9,54.9,30.00,SW,229,2.0,7.0,59,0.00,,,0.00,745,Wunderground v.1.15,2013-08-07 17:20:00,
2013-08-07 10:29:00,71.0,55.9,30.00,SW,229,1.0,7.0,59,0.00,,,0.00,773,Wunderground v.1.15,2013-08-07 17:29:00,
2013-08-07 10:40:00,71.5,55.9,30.00,SW,229,1.0,7.0,58,0.00,,,0.00,796,Wunderground v.1.15,2013-08-07 17:40:00,
2013-08-07 10:49:00,72.2,56.6,30.00,WSW,253,2.0,2.0,58,0.00,,,0.00,814,Wunderground v.1.15,2013-08-07 17:49:00,
2013-08-07 11:00:00,72.9,56.3,29.99,WSW,255,1.0,1.0,56,0.00,,,0.00,833,Wunderground v.1.15,2013-08-07 18:00:00,
2013-08-07 11:09:00,73.7,56.5,29.99,WSW,250,2.0,2.0,55,0.00,,,0.00,849,Wunderground v.1.15,2013-08-07 18:09:00,
2013-08-07 11:20:00,74.4,56.7,29.99,WNW,289,2.0,7.0,54,0.00,,,0.00,868,Wunderground v.1.15,2013-08-07 18:20:00,
2013-08-07 11:29:00,74.1,57.4,29.99,West,281,4.0,4.0,56,0.00,,,0.00,881,Wunderground v.1.15,2013-08-07 18:29:00,
2013-08-07 11:39:00,74.6,57.4,29.99,West,268,3.0,7.0,55,0.00,,,0.00,893,Wunderground v.1.15,2013-08-07 18:39:00,
2013-08-07 11:49:00,75.0,57.7,29.99,WSW,249,3.0,7.0,55,0.00,,,0.00,905,Wunderground v.1.15,2013-08-07 18:49:00,
2013-08-07 11:59:00,74.8,57.5,29.99,NW,321,4.0,4.0,55,0.00,,,0.00,912,Wunderground v.1.15,2013-08-07 18:59:00,
2013-08-07 12:10:00,75.4,57.6,29.98,WNW,295,3.0,3.0,54,0.00,,,0.00,916,Wunderground v.1.15,2013-08-07 19:10:00,
2013-08-07 12:19:00,76.3,57.9,29.98,West,281,3.0,7.0,53,0.00,,,0.00,918,Wunderground v.1.15,2013-08-07 19:19:00,
2013-08-07 12:30:00,77.1,58.1,29.98,SSW,194,2.0,7.0,52,0.00,,,0.00,926,Wunderground v.1.15,2013-08-07 19:30:00,
2013-08-07 12:39:00,78.4,57.1,29.98,SSE,164,3.0,7.0,48,0.00,,,0.00,928,Wunderground v.1.15,2013-08-07 19:39:00,
2013-08-07 12:50:00,78.7,56.8,29.98,South,175,3.0,3.0,47,0.00,,,0.00,932,Wunderground v.1.15,2013-08-07 19:50:00,
2013-08-07 12:59:00,79.6,57.6,29.98,SSE,159,3.0,7.0,47,0.00,,,0.00,932,Wunderground v.1.15,2013-08-07 19:59:00,
2013-08-07 13:09:00,79.1,56.5,29.97,East,87,4.0,4.0,46,0.00,,,0.00,932,Wunderground v.1.15,2013-08-07 20:09:00,
2013-08-07 13:20:00,80.0,56.7,29.97,SSE,153,2.0,7.0,45,0.00,,,0.00,925,Wunderground v.1.15,2013-08-07 20:20:00,
2013-08-07 13:29:00,80.6,56.7,29.97,SE,132,3.0,7.0,44,0.00,,,0.00,928,Wunderground v.1.15,2013-08-07 20:29:00,
2013-08-07 13:40:00,80.8,55.6,29.97,South,169,3.0,3.0,42,0.00,,,0.00,912,Wunderground v.1.15,2013-08-07 20:40:00,
2013-08-07 13:49:00,80.3,55.8,29.97,South,179,5.0,5.0,43,0.00,,,0.00,909,Wunderground v.1.15,2013-08-07 20:49:00,
2013-08-07 14:00:00,80.5,55.3,29.96,SSE,161,4.0,7.0,42,0.00,,,0.00,888,Wunderground v.1.15,2013-08-07 21:00:00,
2013-08-07 14:09:00,81.1,55.8,29.96,SE,138,5.0,5.0,42,0.00,,,0.00,888,Wunderground v.1.15,2013-08-07 21:09:00,
2013-08-07 14:20:00,81.8,56.5,29.96,East,94,5.0,5.0,42,0.00,,,0.00,874,Wunderground v.1.15,2013-08-07 21:20:00,
2013-08-07 14:29:00,81.0,56.4,29.96,SSE,166,5.0,7.0,43,0.00,,,0.00,851,Wunderground v.1.15,2013-08-07 21:29:00,
2013-08-07 14:40:00,81.8,56.5,29.95,ESE,111,6.0,7.0,42,0.00,,,0.00,831,Wunderground v.1.15,2013-08-07 21:40:00,
2013-08-07 14:49:00,81.5,56.8,29.95,SSE,165,6.0,6.0,43,0.00,,,0.00,809,Wunderground v.1.15,2013-08-07 21:49:00,
2013-08-07 14:59:00,82.5,57.1,29.94,SE,138,5.0,5.0,42,0.00,,,0.00,793,Wunderground v.1.15,2013-08-07 21:59:00,
2013-08-07 15:09:00,82.7,56.6,29.94,SSE,153,6.0,6.0,41,0.00,,,0.00,772,Wunderground v.1.15,2013-08-07 22:09:00,
2013-08-07 15:19:00,83.2,57.7,29.93,SE,130,5.0,9.0,42,0.00,,,0.00,747,Wunderground v.1.15,2013-08-07 22:19:00,
2013-08-07 15:30:00,82.6,57.8,29.93,ESE,123,5.0,5.0,43,0.00,,,0.00,721,Wunderground v.1.15,2013-08-07 22:30:00,
2013-08-07 15:39:00,82.7,58.6,29.93,ESE,123,4.0,7.0,44,0.00,,,0.00,696,Wunderground v.1.15,2013-08-07 22:39:00,
2013-08-07 15:50:00,82.1,58.0,29.92,SSE,166,6.0,6.0,44,0.00,,,0.00,670,Wunderground v.1.15,2013-08-07 22:50:00,
2013-08-07 15:59:00,82.1,58.0,29.92,SSE,149,5.0,10.0,44,0.00,,,0.00,643,Wunderground v.1.15,2013-08-07 22:59:00,
2013-08-07 16:10:00,81.8,58.4,29.92,SE,132,7.0,7.0,45,0.00,,,0.00,615,Wunderground v.1.15,2013-08-07 23:10:00,
2013-08-07 16:19:00,81.7,58.3,29.92,SSE,162,6.0,7.0,45,0.00,,,0.00,589,Wunderground v.1.15,2013-08-07 23:19:00,
2013-08-07 16:30:00,80.8,58.1,29.92,ESE,118,8.0,8.0,46,0.00,,,0.00,559,Wunderground v.1.15,2013-08-07 23:30:00,
2013-08-07 16:39:00,80.2,58.7,29.92,ESE,117,7.0,11.0,48,0.00,,,0.00,533,Wunderground v.1.15,2013-08-07 23:39:00,
2013-08-07 16:50:00,80.3,58.8,29.92,South,190,5.0,7.0,48,0.00,,,0.00,506,Wunderground v.1.15,2013-08-07 23:50:00,
2013-08-07 17:00:00,79.9,58.5,29.92,ESE,105,6.0,6.0,48,0.00,,,0.00,468,Wunderground v.1.15,2013-08-08 00:00:00,
2013-08-07 17:09:00,79.2,58.4,29.91,SE,145,7.0,7.0,49,0.00,,,0.00,438,Wunderground v.1.15,2013-08-08 00:09:00,
2013-08-07 17:20:00,79.7,58.3,29.91,ESE,103,5.0,5.0,48,0.00,,,0.00,403,Wunderground v.1.15,2013-08-08 00:20:00,
2013-08-07 17:29:00,79.7,58.3,29.91,South,169,5.0,7.0,48,0.00,,,0.00,371,Wunderground v.1.15,2013-08-08 00:29:00,
2013-08-07 17:40:00,79.1,57.7,29.91,South,173,6.0,6.0,48,0.00,,,0.00,343,Wunderground v.1.15,2013-08-08 00:40:00,
2013-08-07 17:49:00,78.8,58.0,29.91,ESE,110,4.0,4.0,49,0.00,,,0.00,309,Wunderground v.1.15,2013-08-08 00:49:00,
2013-08-07 18:00:00,77.8,57.7,29.91,SE,127,6.0,10.0,50,0.00,,,0.00,276,Wunderground v.1.15,2013-08-08 01:00:00,
2013-08-07 18:09:00,77.5,57.9,29.91,SE,136,5.0,5.0,51,0.00,,,0.00,246,Wunderground v.1.15,2013-08-08 01:09:00,
2013-08-07 18:20:00,77.3,57.8,29.91,East,99,5.0,7.0,51,0.00,,,0.00,204,Wunderground v.1.15,2013-08-08 01:20:00,
2013-08-07 18:29:00,76.8,57.8,29.91,SE,139,4.0,7.0,52,0.00,,,0.00,163,Wunderground v.1.15,2013-08-08 01:29:00,
2013-08-07 18:40:00,75.6,56.7,29.91,SE,141,5.0,5.0,52,0.00,,,0.00,127,Wunderground v.1.15,2013-08-08 01:40:00,
2013-08-07 18:49:00,75.1,56.8,29.91,ESE,123,5.0,7.0,53,0.00,,,0.00,32,Wunderground v.1.15,2013-08-08 01:49:00,
2013-08-07 18:59:00,74.1,56.4,29.91,ESE,110,4.0,8.0,54,0.00,,,0.00,37,Wunderground v.1.15,2013-08-08 01:59:00,
2013-08-07 19:09:00,73.1,56.0,29.92,ESE,103,5.0,5.0,55,0.00,,,0.00,39,Wunderground v.1.15,2013-08-08 02:09:00,
2013-08-07 19:19:00,72.6,56.0,29.92,ESE,123,4.0,7.0,56,0.00,,,0.00,21,Wunderground v.1.15,2013-08-08 02:19:00,
2013-08-07 19:29:00,72.0,55.4,29.92,ESE,122,5.0,5.0,56,0.00,,,0.00,16,Wunderground v.1.15,2013-08-08 02:29:00,
2013-08-07 19:39:00,71.3,55.3,29.92,SE,139,3.0,7.0,57,0.00,,,0.00,9,Wunderground v.1.15,2013-08-08 02:39:00,
2013-08-07 19:49:00,70.5,54.5,29.92,ESE,110,4.0,7.0,57,0.00,,,0.00,0,Wunderground v.1.15,2013-08-08 02:49:00,
2013-08-07 19:59:00,69.8,54.4,29.92,ESE,121,4.0,7.0,58,0.00,,,0.00,0,Wunderground v.1.15,2013-08-08 02:59:00,
2013-08-07 20:09:00,69.5,54.5,29.93,ESE,111,3.0,3.0,59,0.00,,,0.00,0,Wunderground v.1.15,2013-08-08 03:09:00,
2013-08-07 20:19:00,69.3,54.8,29.93,ESE,117,2.0,2.0,60,0.00,,,0.00,0,Wunderground v.1.15,2013-08-08 03:19:00,
2013-08-07 20:29:00,69.2,54.7,29.93,ESE,116,2.0,2.0,60,0.00,,,0.00,0,Wunderground v.1.15,2013-08-08 03:29:00,
2013-08-07 20:39:00,68.9,54.9,29.93,ESE,117,2.0,2.0,61,0.00,,,0.00,0,Wunderground v.1.15,2013-08-08 03:39:00,
2013-08-07 20:50:00,68.7,54.7,29.93,ESE,114,2.0,7.0,61,0.00,,,0.00,0,Wunderground v.1.15,2013-08-08 03:50:00,
2013-08-07 20:59:00,68.7,54.7,29.93,ESE,114,1.0,1.0,61,0.00,,,0.00,0,Wunderground v.1.15,2013-08-08 03:59:00,
2013-08-07 21:10:00,68.6,54.6,29.94,ESE,114,0.0,7.0,61,0.00,,,0.00,0,Wunderground v.1.15,2013-08-08 04:10:00,
2013-08-07 21:19:00,68.3,54.3,29.94,ESE,114,0.0,7.0,61,0.00,,,0.00,0,Wunderground v.1.15,2013-08-08 04:19:00,
2013-08-07 21:30:00,68.1,54.6,29.94,East,101,1.0,7.0,62,0.00,,,0.00,0,Wunderground v.1.15,2013-08-08 04:30:00,
2013-08-07 21:39:00,68.1,55.0,29.94,East,98,3.0,7.0,63,0.00,,,0.00,0,Wunderground v.1.15,2013-08-08 04:39:00,
2013-08-07 21:49:00,68.2,54.2,29.94,ESE,115,4.0,7.0,61,0.00,,,0.00,0,Wunderground v.1.15,2013-08-08 04:49:00,
2013-08-07 21:59:00,68.2,52.9,29.94,East,101,2.0,7.0,58,0.00,,,0.00,0,Wunderground v.1.15,2013-08-08 04:59:00,
2013-08-07 22:09:00,68.0,53.1,29.94,East,101,1.0,1.0,59,0.00,,,0.00,0,Wunderground v.1.15,2013-08-08 05:09:00,
2013-08-07 22:19:00,67.5,53.1,29.94,East,101,0.0,7.0,60,0.00,,,0.00,0,Wunderground v.1.15,2013-08-08 05:19:00,
2013-08-07 22:29:00,66.9,52.6,29.93,East,101,0.0,7.0,60,0.00,,,0.00,0,Wunderground v.1.15,2013-08-08 05:29:00,
2013-08-07 22:39:00,66.4,53.0,29.93,East,101,0.0,7.0,62,0.00,,,0.00,0,Wunderground v.1.15,2013-08-08 05:39:00,
2013-08-07 22:49:00,66.0,53.0,29.93,East,101,0.0,7.0,63,0.00,,,0.00,0,Wunderground v.1.15,2013-08-08 05:49:00,
2013-08-07 22:59:00,65.7,52.8,29.93,East,101,0.0,7.0,63,0.00,,,0.00,0,Wunderground v.1.15,2013-08-08 05:59:00,
2013-08-07 23:09:00,65.4,52.5,29.93,East,101,0.0,7.0,63,0.00,,,0.00,0,Wunderground v.1.15,2013-08-08 06:09:00,
2013-08-07 23:20:00,65.3,52.8,29.93,East,101,0.0,7.0,64,0.00,,,0.00,0,Wunderground v.1.15,2013-08-08 06:20:00,
2013-08-07 23:29:00,64.9,52.0,29.93,East,101,0.0,7.0,63,0.00,,,0.00,0,Wunderground v.1.15,2013-08-08 06:29:00,
2013-08-07 23:40:00,64.5,51.2,29.93,East,101,0.0,7.0,62,0.00,,,0.00,0,Wunderground v.1.15,2013-08-08 06:40:00,
2013-08-07 23:49:00,64.0,50.3,29.93,East,101,0.0,7.0,61,0.00,,,0.00,0,Wunderground v.1.15,2013-08-08 06:49:00,